sensor_id;sensor_type;location;lat;lon;timestamp;P1;durP1;ratioP1;P2;durP2;ratioP2
18280;SDS011;9266;51.132;17.062;2023-03-23T00:00:06;24.37;;;18.10;;
18280;SDS011;9266;51.132;17.062;2023-03-23T00:02:35;23.47;;;17.60;;
18280;SDS011;9266;51.132;17.062;2023-03-23T00:05:03;25.90;;;17.83;;
18280;SDS011;9266;51.132;17.062;2023-03-23T00:07:32;23.73;;;17.03;;
18280;SDS011;9266;51.132;17.062;2023-03-23T00:10:01;22.57;;;17.17;;
18280;SDS011;9266;51.132;17.062;2023-03-23T00:12:29;23.70;;;17.73;;
18280;SDS011;9266;51.132;17.062;2023-03-23T00:15:02;24.37;;;17.90;;
18280;SDS011;9266;51.132;17.062;2023-03-23T00:17:31;21.20;;;17.07;;
18280;SDS011;9266;51.132;17.062;2023-03-23T00:19:59;23.93;;;17.43;;
18280;SDS011;9266;51.132;17.062;2023-03-23T00:22:30;24.37;;;17.53;;
18280;SDS011;9266;51.132;17.062;2023-03-23T00:25:02;24.83;;;16.87;;
18280;SDS011;9266;51.132;17.062;2023-03-23T00:27:30;24.47;;;16.80;;
18280;SDS011;9266;51.132;17.062;2023-03-23T00:29:57;25.13;;;17.60;;
18280;SDS011;9266;51.132;17.062;2023-03-23T00:32:25;26.17;;;17.77;;
18280;SDS011;9266;51.132;17.062;2023-03-23T00:34:53;24.73;;;17.20;;
18280;SDS011;9266;51.132;17.062;2023-03-23T00:37:20;22.47;;;16.53;;
18280;SDS011;9266;51.132;17.062;2023-03-23T00:39:48;24.00;;;16.97;;
18280;SDS011;9266;51.132;17.062;2023-03-23T00:42:17;23.57;;;17.47;;
18280;SDS011;9266;51.132;17.062;2023-03-23T00:44:44;28.10;;;18.27;;
18280;SDS011;9266;51.132;17.062;2023-03-23T00:47:11;22.90;;;17.13;;
18280;SDS011;9266;51.132;17.062;2023-03-23T00:49:43;24.37;;;16.13;;
18280;SDS011;9266;51.132;17.062;2023-03-23T00:52:10;23.27;;;17.27;;
18280;SDS011;9266;51.132;17.062;2023-03-23T00:54:40;26.97;;;18.30;;
18280;SDS011;9266;51.132;17.062;2023-03-23T00:57:07;23.57;;;17.10;;
18280;SDS011;9266;51.132;17.062;2023-03-23T00:59:35;27.33;;;18.27;;
18280;SDS011;9266;51.132;17.062;2023-03-23T01:02:02;27.03;;;19.63;;
18280;SDS011;9266;51.132;17.062;2023-03-23T01:04:29;23.40;;;18.30;;
18280;SDS011;9266;51.132;17.062;2023-03-23T01:06:58;23.67;;;17.60;;
18280;SDS011;9266;51.132;17.062;2023-03-23T01:09:26;24.33;;;17.87;;
18280;SDS011;9266;51.132;17.062;2023-03-23T01:11:53;25.97;;;18.40;;
18280;SDS011;9266;51.132;17.062;2023-03-23T01:14:21;24.63;;;18.03;;
18280;SDS011;9266;51.132;17.062;2023-03-23T01:16:50;25.77;;;18.43;;
18280;SDS011;9266;51.132;17.062;2023-03-23T01:19:18;25.10;;;18.10;;
18280;SDS011;9266;51.132;17.062;2023-03-23T01:21:45;23.57;;;17.30;;
18280;SDS011;9266;51.132;17.062;2023-03-23T01:24:13;22.37;;;16.93;;
18280;SDS011;9266;51.132;17.062;2023-03-23T01:26:40;23.23;;;16.93;;
18280;SDS011;9266;51.132;17.062;2023-03-23T01:29:07;22.77;;;15.97;;
18280;SDS011;9266;51.132;17.062;2023-03-23T01:31:34;22.53;;;15.57;;
18280;SDS011;9266;51.132;17.062;2023-03-23T01:34:02;21.27;;;15.93;;
18280;SDS011;9266;51.132;17.062;2023-03-23T01:36:29;20.00;;;15.10;;
18280;SDS011;9266;51.132;17.062;2023-03-23T01:38:58;18.03;;;14.80;;
18280;SDS011;9266;51.132;17.062;2023-03-23T01:41:29;20.40;;;14.63;;
18280;SDS011;9266;51.132;17.062;2023-03-23T01:43:58;20.87;;;15.13;;
18280;SDS011;9266;51.132;17.062;2023-03-23T01:46:29;24.30;;;16.53;;
18280;SDS011;9266;51.132;17.062;2023-03-23T01:48:58;23.63;;;16.63;;
18280;SDS011;9266;51.132;17.062;2023-03-23T01:51:31;25.80;;;16.60;;
18280;SDS011;9266;51.132;17.062;2023-03-23T01:54:02;22.73;;;16.07;;
18280;SDS011;9266;51.132;17.062;2023-03-23T01:56:35;22.50;;;15.87;;
18280;SDS011;9266;51.132;17.062;2023-03-23T01:59:06;23.20;;;16.40;;
18280;SDS011;9266;51.132;17.062;2023-03-23T02:01:35;21.80;;;15.67;;
18280;SDS011;9266;51.132;17.062;2023-03-23T02:04:04;21.33;;;14.90;;
18280;SDS011;9266;51.132;17.062;2023-03-23T02:06:32;19.63;;;14.50;;
18280;SDS011;9266;51.132;17.062;2023-03-23T02:08:59;21.97;;;14.90;;
18280;SDS011;9266;51.132;17.062;2023-03-23T02:11:28;19.10;;;15.07;;
18280;SDS011;9266;51.132;17.062;2023-03-23T02:13:57;18.67;;;15.03;;
18280;SDS011;9266;51.132;17.062;2023-03-23T02:16:27;23.27;;;14.37;;
18280;SDS011;9266;51.132;17.062;2023-03-23T02:19:03;20.03;;;14.53;;
18280;SDS011;9266;51.132;17.062;2023-03-23T02:24:56;17.80;;;13.43;;
18280;SDS011;9266;51.132;17.062;2023-03-23T02:30:34;19.30;;;13.97;;
18280;SDS011;9266;51.132;17.062;2023-03-23T02:33:24;18.20;;;13.47;;
18280;SDS011;9266;51.132;17.062;2023-03-23T02:36:02;21.27;;;14.13;;
18280;SDS011;9266;51.132;17.062;2023-03-23T02:38:37;20.87;;;13.57;;
18280;SDS011;9266;51.132;17.062;2023-03-23T02:41:10;18.07;;;13.40;;
18280;SDS011;9266;51.132;17.062;2023-03-23T02:43:40;20.57;;;13.63;;
18280;SDS011;9266;51.132;17.062;2023-03-23T02:46:11;21.77;;;13.63;;
18280;SDS011;9266;51.132;17.062;2023-03-23T02:48:42;18.93;;;13.10;;
18280;SDS011;9266;51.132;17.062;2023-03-23T02:51:11;15.77;;;12.17;;
18280;SDS011;9266;51.132;17.062;2023-03-23T02:53:40;17.77;;;13.00;;
18280;SDS011;9266;51.132;17.062;2023-03-23T02:56:09;16.50;;;13.07;;
18280;SDS011;9266;51.132;17.062;2023-03-23T02:58:38;18.57;;;13.27;;
18280;SDS011;9266;51.132;17.062;2023-03-23T03:04:11;17.43;;;12.27;;
18280;SDS011;9266;51.132;17.062;2023-03-23T03:06:41;16.47;;;11.87;;
18280;SDS011;9266;51.132;17.062;2023-03-23T03:09:14;17.17;;;12.03;;
18280;SDS011;9266;51.132;17.062;2023-03-23T03:11:47;12.50;;;11.03;;
18280;SDS011;9266;51.132;17.062;2023-03-23T03:14:19;14.07;;;11.10;;
18280;SDS011;9266;51.132;17.062;2023-03-23T03:16:49;14.60;;;10.40;;
18280;SDS011;9266;51.132;17.062;2023-03-23T03:19:24;12.90;;;9.40;;
18280;SDS011;9266;51.132;17.062;2023-03-23T03:21:56;14.00;;;10.30;;
18280;SDS011;9266;51.132;17.062;2023-03-23T03:24:25;14.17;;;10.73;;
18280;SDS011;9266;51.132;17.062;2023-03-23T03:26:56;12.63;;;9.40;;
18280;SDS011;9266;51.132;17.062;2023-03-23T03:29:26;12.37;;;9.30;;
18280;SDS011;9266;51.132;17.062;2023-03-23T03:31:56;12.83;;;8.60;;
18280;SDS011;9266;51.132;17.062;2023-03-23T03:34:27;11.67;;;8.73;;
18280;SDS011;9266;51.132;17.062;2023-03-23T03:36:57;9.80;;;7.87;;
18280;SDS011;9266;51.132;17.062;2023-03-23T03:39:25;12.50;;;7.70;;
18280;SDS011;9266;51.132;17.062;2023-03-23T03:41:53;14.70;;;8.20;;
18280;SDS011;9266;51.132;17.062;2023-03-23T03:44:21;10.27;;;7.97;;
18280;SDS011;9266;51.132;17.062;2023-03-23T03:46:48;10.53;;;8.20;;
18280;SDS011;9266;51.132;17.062;2023-03-23T03:49:15;9.37;;;7.80;;
18280;SDS011;9266;51.132;17.062;2023-03-23T03:51:44;11.87;;;8.13;;
18280;SDS011;9266;51.132;17.062;2023-03-23T03:54:11;10.00;;;8.07;;
18280;SDS011;9266;51.132;17.062;2023-03-23T03:56:38;10.30;;;8.20;;
18280;SDS011;9266;51.132;17.062;2023-03-23T03:59:06;10.47;;;7.40;;
18280;SDS011;9266;51.132;17.062;2023-03-23T04:01:34;10.97;;;7.77;;
18280;SDS011;9266;51.132;17.062;2023-03-23T04:04:03;10.33;;;6.90;;
18280;SDS011;9266;51.132;17.062;2023-03-23T04:06:32;10.97;;;7.20;;
18280;SDS011;9266;51.132;17.062;2023-03-23T04:09:02;7.83;;;6.40;;
18280;SDS011;9266;51.132;17.062;2023-03-23T04:11:32;12.27;;;7.30;;
18280;SDS011;9266;51.132;17.062;2023-03-23T04:13:59;9.77;;;6.70;;
18280;SDS011;9266;51.132;17.062;2023-03-23T04:16:27;9.67;;;6.67;;
18280;SDS011;9266;51.132;17.062;2023-03-23T04:18:55;9.07;;;6.60;;
18280;SDS011;9266;51.132;17.062;2023-03-23T04:21:23;8.87;;;6.90;;
18280;SDS011;9266;51.132;17.062;2023-03-23T04:23:54;11.57;;;6.80;;
18280;SDS011;9266;51.132;17.062;2023-03-23T04:26:25;9.03;;;7.00;;
18280;SDS011;9266;51.132;17.062;2023-03-23T04:28:53;9.23;;;6.03;;
18280;SDS011;9266;51.132;17.062;2023-03-23T04:31:21;9.70;;;7.10;;
18280;SDS011;9266;51.132;17.062;2023-03-23T04:33:49;9.00;;;7.00;;
18280;SDS011;9266;51.132;17.062;2023-03-23T04:36:18;8.13;;;6.43;;
18280;SDS011;9266;51.132;17.062;2023-03-23T04:38:47;8.87;;;6.37;;
18280;SDS011;9266;51.132;17.062;2023-03-23T04:41:15;11.47;;;6.67;;
18280;SDS011;9266;51.132;17.062;2023-03-23T04:43:44;9.43;;;6.50;;
18280;SDS011;9266;51.132;17.062;2023-03-23T04:46:11;9.10;;;6.63;;
18280;SDS011;9266;51.132;17.062;2023-03-23T04:48:43;8.30;;;6.33;;
18280;SDS011;9266;51.132;17.062;2023-03-23T04:51:10;8.03;;;6.73;;
18280;SDS011;9266;51.132;17.062;2023-03-23T04:53:38;10.50;;;7.47;;
18280;SDS011;9266;51.132;17.062;2023-03-23T04:56:07;8.40;;;6.50;;
18280;SDS011;9266;51.132;17.062;2023-03-23T04:58:34;10.63;;;6.57;;
18280;SDS011;9266;51.132;17.062;2023-03-23T05:01:02;7.03;;;5.97;;
18280;SDS011;9266;51.132;17.062;2023-03-23T05:03:30;7.83;;;5.73;;
18280;SDS011;9266;51.132;17.062;2023-03-23T05:05:57;7.10;;;6.10;;
18280;SDS011;9266;51.132;17.062;2023-03-23T05:08:27;10.23;;;6.50;;
18280;SDS011;9266;51.132;17.062;2023-03-23T05:10:57;11.03;;;6.57;;
18280;SDS011;9266;51.132;17.062;2023-03-23T05:13:25;9.23;;;6.27;;
18280;SDS011;9266;51.132;17.062;2023-03-23T05:15:53;9.23;;;6.27;;
18280;SDS011;9266;51.132;17.062;2023-03-23T05:18:22;11.27;;;6.10;;
18280;SDS011;9266;51.132;17.062;2023-03-23T05:20:50;9.73;;;6.13;;
18280;SDS011;9266;51.132;17.062;2023-03-23T05:23:18;10.83;;;6.03;;
18280;SDS011;9266;51.132;17.062;2023-03-23T05:25:52;10.17;;;7.10;;
18280;SDS011;9266;51.132;17.062;2023-03-23T05:28:19;9.80;;;5.80;;
18280;SDS011;9266;51.132;17.062;2023-03-23T05:30:47;8.53;;;6.30;;
18280;SDS011;9266;51.132;17.062;2023-03-23T05:33:14;13.87;;;6.63;;
18280;SDS011;9266;51.132;17.062;2023-03-23T05:35:42;10.30;;;7.73;;
18280;SDS011;9266;51.132;17.062;2023-03-23T05:38:12;9.37;;;6.33;;
18280;SDS011;9266;51.132;17.062;2023-03-23T05:40:39;8.30;;;5.93;;
18280;SDS011;9266;51.132;17.062;2023-03-23T05:43:07;8.13;;;6.23;;
18280;SDS011;9266;51.132;17.062;2023-03-23T05:45:36;8.10;;;5.80;;
18280;SDS011;9266;51.132;17.062;2023-03-23T05:48:03;9.70;;;6.37;;
18280;SDS011;9266;51.132;17.062;2023-03-23T05:50:31;9.40;;;6.47;;
18280;SDS011;9266;51.132;17.062;2023-03-23T05:52:59;9.20;;;6.20;;
18280;SDS011;9266;51.132;17.062;2023-03-23T05:55:26;9.87;;;6.50;;
18280;SDS011;9266;51.132;17.062;2023-03-23T05:57:55;10.90;;;6.67;;
18280;SDS011;9266;51.132;17.062;2023-03-23T06:00:22;7.57;;;6.07;;
18280;SDS011;9266;51.132;17.062;2023-03-23T06:02:49;8.83;;;6.47;;
18280;SDS011;9266;51.132;17.062;2023-03-23T06:05:21;8.63;;;6.33;;
18280;SDS011;9266;51.132;17.062;2023-03-23T06:07:50;8.53;;;6.07;;
18280;SDS011;9266;51.132;17.062;2023-03-23T06:10:19;7.53;;;5.60;;
18280;SDS011;9266;51.132;17.062;2023-03-23T06:12:48;9.30;;;5.80;;
18280;SDS011;9266;51.132;17.062;2023-03-23T06:15:17;9.93;;;5.87;;
18280;SDS011;9266;51.132;17.062;2023-03-23T06:17:45;11.27;;;7.67;;
18280;SDS011;9266;51.132;17.062;2023-03-23T06:20:15;15.20;;;8.90;;
18280;SDS011;9266;51.132;17.062;2023-03-23T06:22:42;16.33;;;6.73;;
18280;SDS011;9266;51.132;17.062;2023-03-23T06:25:09;14.63;;;6.43;;
18280;SDS011;9266;51.132;17.062;2023-03-23T06:27:39;6.13;;;5.30;;
18280;SDS011;9266;51.132;17.062;2023-03-23T06:30:08;9.73;;;5.70;;
18280;SDS011;9266;51.132;17.062;2023-03-23T06:32:37;11.43;;;5.67;;
18280;SDS011;9266;51.132;17.062;2023-03-23T06:35:05;12.67;;;5.90;;
18280;SDS011;9266;51.132;17.062;2023-03-23T06:37:34;7.10;;;5.27;;
18280;SDS011;9266;51.132;17.062;2023-03-23T06:40:01;6.33;;;5.00;;
18280;SDS011;9266;51.132;17.062;2023-03-23T06:42:30;10.37;;;6.00;;
18280;SDS011;9266;51.132;17.062;2023-03-23T06:44:59;6.23;;;5.20;;
18280;SDS011;9266;51.132;17.062;2023-03-23T06:47:27;7.67;;;4.60;;
18280;SDS011;9266;51.132;17.062;2023-03-23T06:49:55;6.33;;;4.97;;
18280;SDS011;9266;51.132;17.062;2023-03-23T06:52:22;6.73;;;5.30;;
18280;SDS011;9266;51.132;17.062;2023-03-23T06:54:50;10.77;;;7.40;;
18280;SDS011;9266;51.132;17.062;2023-03-23T06:57:17;10.83;;;5.60;;
18280;SDS011;9266;51.132;17.062;2023-03-23T06:59:46;7.70;;;5.37;;
18280;SDS011;9266;51.132;17.062;2023-03-23T07:02:15;7.90;;;5.10;;
18280;SDS011;9266;51.132;17.062;2023-03-23T07:04:42;6.70;;;5.57;;
18280;SDS011;9266;51.132;17.062;2023-03-23T07:07:10;11.67;;;6.10;;
18280;SDS011;9266;51.132;17.062;2023-03-23T07:09:39;11.30;;;6.27;;
18280;SDS011;9266;51.132;17.062;2023-03-23T07:12:07;7.63;;;5.40;;
18280;SDS011;9266;51.132;17.062;2023-03-23T07:14:35;10.07;;;5.47;;
18280;SDS011;9266;51.132;17.062;2023-03-23T07:17:02;8.60;;;6.13;;
18280;SDS011;9266;51.132;17.062;2023-03-23T07:19:32;7.07;;;5.10;;
18280;SDS011;9266;51.132;17.062;2023-03-23T07:21:59;6.87;;;5.33;;
18280;SDS011;9266;51.132;17.062;2023-03-23T07:24:26;10.20;;;5.30;;
18280;SDS011;9266;51.132;17.062;2023-03-23T07:26:53;10.27;;;5.73;;
18280;SDS011;9266;51.132;17.062;2023-03-23T07:29:21;9.47;;;5.50;;
18280;SDS011;9266;51.132;17.062;2023-03-23T07:31:48;9.80;;;5.70;;
18280;SDS011;9266;51.132;17.062;2023-03-23T07:34:17;8.60;;;5.30;;
18280;SDS011;9266;51.132;17.062;2023-03-23T07:36:45;6.30;;;5.50;;
18280;SDS011;9266;51.132;17.062;2023-03-23T07:39:12;11.57;;;10.17;;
18280;SDS011;9266;51.132;17.062;2023-03-23T07:41:40;11.70;;;5.70;;
18280;SDS011;9266;51.132;17.062;2023-03-23T07:44:07;8.90;;;5.63;;
18280;SDS011;9266;51.132;17.062;2023-03-23T07:46:34;12.80;;;5.40;;
18280;SDS011;9266;51.132;17.062;2023-03-23T07:49:01;10.53;;;5.40;;
18280;SDS011;9266;51.132;17.062;2023-03-23T07:51:30;11.03;;;6.03;;
18280;SDS011;9266;51.132;17.062;2023-03-23T07:53:59;7.63;;;5.60;;
18280;SDS011;9266;51.132;17.062;2023-03-23T07:56:27;8.20;;;5.40;;
18280;SDS011;9266;51.132;17.062;2023-03-23T07:58:54;8.47;;;5.43;;
18280;SDS011;9266;51.132;17.062;2023-03-23T08:01:21;8.83;;;5.20;;
18280;SDS011;9266;51.132;17.062;2023-03-23T08:03:49;7.93;;;4.87;;
18280;SDS011;9266;51.132;17.062;2023-03-23T08:06:17;10.07;;;5.77;;
18280;SDS011;9266;51.132;17.062;2023-03-23T08:08:44;12.27;;;6.40;;
18280;SDS011;9266;51.132;17.062;2023-03-23T08:11:13;8.97;;;5.80;;
18280;SDS011;9266;51.132;17.062;2023-03-23T08:13:40;8.67;;;5.83;;
18280;SDS011;9266;51.132;17.062;2023-03-23T08:16:07;7.87;;;5.60;;
18280;SDS011;9266;51.132;17.062;2023-03-23T08:18:35;10.47;;;6.07;;
18280;SDS011;9266;51.132;17.062;2023-03-23T08:21:03;12.10;;;6.33;;
18280;SDS011;9266;51.132;17.062;2023-03-23T08:23:31;8.50;;;5.50;;
18280;SDS011;9266;51.132;17.062;2023-03-23T08:25:58;11.83;;;6.03;;
18280;SDS011;9266;51.132;17.062;2023-03-23T08:28:27;9.03;;;5.83;;
18280;SDS011;9266;51.132;17.062;2023-03-23T08:30:54;8.40;;;5.83;;
18280;SDS011;9266;51.132;17.062;2023-03-23T08:33:21;23.77;;;13.47;;
18280;SDS011;9266;51.132;17.062;2023-03-23T08:35:54;23.23;;;13.07;;
18280;SDS011;9266;51.132;17.062;2023-03-23T08:38:21;15.83;;;6.70;;
18280;SDS011;9266;51.132;17.062;2023-03-23T08:40:49;9.40;;;5.50;;
18280;SDS011;9266;51.132;17.062;2023-03-23T08:43:16;8.13;;;5.73;;
18280;SDS011;9266;51.132;17.062;2023-03-23T08:45:45;10.90;;;6.83;;
18280;SDS011;9266;51.132;17.062;2023-03-23T08:48:13;8.47;;;4.60;;
18280;SDS011;9266;51.132;17.062;2023-03-23T08:50:40;9.70;;;4.70;;
18280;SDS011;9266;51.132;17.062;2023-03-23T08:53:07;6.97;;;4.47;;
18280;SDS011;9266;51.132;17.062;2023-03-23T08:55:34;12.50;;;5.00;;
18280;SDS011;9266;51.132;17.062;2023-03-23T08:58:01;7.53;;;3.87;;
18280;SDS011;9266;51.132;17.062;2023-03-23T09:00:28;5.10;;;3.70;;
18280;SDS011;9266;51.132;17.062;2023-03-23T09:02:58;6.23;;;3.53;;
18280;SDS011;9266;51.132;17.062;2023-03-23T09:05:27;9.87;;;4.03;;
18280;SDS011;9266;51.132;17.062;2023-03-23T09:07:56;7.97;;;4.33;;
18280;SDS011;9266;51.132;17.062;2023-03-23T09:10:24;11.97;;;4.03;;
18280;SDS011;9266;51.132;17.062;2023-03-23T09:12:53;6.17;;;4.17;;
18280;SDS011;9266;51.132;17.062;2023-03-23T09:15:21;7.90;;;4.43;;
18280;SDS011;9266;51.132;17.062;2023-03-23T09:17:49;8.13;;;3.93;;
18280;SDS011;9266;51.132;17.062;2023-03-23T09:20:19;5.47;;;4.27;;
18280;SDS011;9266;51.132;17.062;2023-03-23T09:22:49;8.83;;;4.40;;
18280;SDS011;9266;51.132;17.062;2023-03-23T09:25:18;8.87;;;5.70;;
18280;SDS011;9266;51.132;17.062;2023-03-23T09:27:48;7.27;;;4.83;;
18280;SDS011;9266;51.132;17.062;2023-03-23T09:30:18;7.03;;;4.23;;
18280;SDS011;9266;51.132;17.062;2023-03-23T09:32:46;8.80;;;4.20;;
18280;SDS011;9266;51.132;17.062;2023-03-23T09:35:14;8.33;;;5.10;;
18280;SDS011;9266;51.132;17.062;2023-03-23T09:37:44;5.87;;;3.90;;
18280;SDS011;9266;51.132;17.062;2023-03-23T09:40:13;6.47;;;4.30;;
18280;SDS011;9266;51.132;17.062;2023-03-23T09:42:55;9.87;;;4.37;;
18280;SDS011;9266;51.132;17.062;2023-03-23T09:45:42;8.50;;;4.30;;
18280;SDS011;9266;51.132;17.062;2023-03-23T09:48:23;7.77;;;3.73;;
18280;SDS011;9266;51.132;17.062;2023-03-23T09:51:04;10.27;;;3.77;;
18280;SDS011;9266;51.132;17.062;2023-03-23T09:53:41;8.97;;;4.50;;
18280;SDS011;9266;51.132;17.062;2023-03-23T09:56:11;9.10;;;3.93;;
18280;SDS011;9266;51.132;17.062;2023-03-23T09:58:43;5.73;;;4.00;;
18280;SDS011;9266;51.132;17.062;2023-03-23T10:01:17;10.47;;;3.80;;
18280;SDS011;9266;51.132;17.062;2023-03-23T10:03:51;8.37;;;3.80;;
18280;SDS011;9266;51.132;17.062;2023-03-23T10:06:34;4.80;;;3.37;;
18280;SDS011;9266;51.132;17.062;2023-03-23T10:09:08;6.93;;;3.97;;
18280;SDS011;9266;51.132;17.062;2023-03-23T10:11:45;5.23;;;2.93;;
18280;SDS011;9266;51.132;17.062;2023-03-23T10:14:29;7.33;;;3.07;;
18280;SDS011;9266;51.132;17.062;2023-03-23T10:17:11;3.97;;;2.90;;
18280;SDS011;9266;51.132;17.062;2023-03-23T10:19:44;5.20;;;2.70;;
18280;SDS011;9266;51.132;17.062;2023-03-23T10:22:17;6.17;;;3.17;;
18280;SDS011;9266;51.132;17.062;2023-03-23T10:24:51;3.20;;;2.70;;
18280;SDS011;9266;51.132;17.062;2023-03-23T10:27:26;4.10;;;2.40;;
18280;SDS011;9266;51.132;17.062;2023-03-23T10:30:01;3.60;;;2.33;;
18280;SDS011;9266;51.132;17.062;2023-03-23T10:32:41;2.30;;;1.80;;
18280;SDS011;9266;51.132;17.062;2023-03-23T10:35:14;4.47;;;2.30;;
18280;SDS011;9266;51.132;17.062;2023-03-23T10:37:46;4.70;;;2.63;;
18280;SDS011;9266;51.132;17.062;2023-03-23T10:40:18;5.67;;;2.30;;
18280;SDS011;9266;51.132;17.062;2023-03-23T10:42:49;3.90;;;2.40;;
18280;SDS011;9266;51.132;17.062;2023-03-23T10:45:20;3.37;;;2.00;;
18280;SDS011;9266;51.132;17.062;2023-03-23T10:47:51;4.33;;;2.07;;
18280;SDS011;9266;51.132;17.062;2023-03-23T10:50:22;6.13;;;2.10;;
18280;SDS011;9266;51.132;17.062;2023-03-23T10:52:52;3.43;;;2.03;;
18280;SDS011;9266;51.132;17.062;2023-03-23T10:55:24;4.93;;;1.93;;
18280;SDS011;9266;51.132;17.062;2023-03-23T10:58:04;4.30;;;2.10;;
18280;SDS011;9266;51.132;17.062;2023-03-23T11:00:33;5.23;;;2.17;;
18280;SDS011;9266;51.132;17.062;2023-03-23T11:03:20;5.23;;;2.20;;
18280;SDS011;9266;51.132;17.062;2023-03-23T11:05:54;6.07;;;2.00;;
18280;SDS011;9266;51.132;17.062;2023-03-23T11:08:24;5.87;;;2.10;;
18280;SDS011;9266;51.132;17.062;2023-03-23T11:10:56;6.50;;;2.30;;
18280;SDS011;9266;51.132;17.062;2023-03-23T11:13:27;2.87;;;1.93;;
18280;SDS011;9266;51.132;17.062;2023-03-23T11:15:57;2.17;;;1.97;;
18280;SDS011;9266;51.132;17.062;2023-03-23T11:18:26;2.23;;;1.97;;
18280;SDS011;9266;51.132;17.062;2023-03-23T11:21:01;5.40;;;2.20;;
18280;SDS011;9266;51.132;17.062;2023-03-23T11:23:32;5.20;;;2.40;;
18280;SDS011;9266;51.132;17.062;2023-03-23T11:26:03;5.03;;;2.20;;
18280;SDS011;9266;51.132;17.062;2023-03-23T11:28:36;2.63;;;2.13;;
18280;SDS011;9266;51.132;17.062;2023-03-23T11:31:09;2.73;;;2.20;;
18280;SDS011;9266;51.132;17.062;2023-03-23T11:33:46;2.63;;;2.10;;
18280;SDS011;9266;51.132;17.062;2023-03-23T11:36:17;3.00;;;1.90;;
18280;SDS011;9266;51.132;17.062;2023-03-23T11:38:44;6.90;;;2.37;;
18280;SDS011;9266;51.132;17.062;2023-03-23T11:41:17;2.03;;;1.70;;
18280;SDS011;9266;51.132;17.062;2023-03-23T11:43:46;2.67;;;2.00;;
18280;SDS011;9266;51.132;17.062;2023-03-23T11:46:17;4.80;;;2.30;;
18280;SDS011;9266;51.132;17.062;2023-03-23T11:48:53;4.33;;;2.57;;
18280;SDS011;9266;51.132;17.062;2023-03-23T11:51:28;3.83;;;2.23;;
18280;SDS011;9266;51.132;17.062;2023-03-23T11:54:02;2.30;;;2.00;;
18280;SDS011;9266;51.132;17.062;2023-03-23T11:56:38;4.80;;;2.30;;
18280;SDS011;9266;51.132;17.062;2023-03-23T11:59:09;3.57;;;2.30;;
18280;SDS011;9266;51.132;17.062;2023-03-23T12:01:50;3.30;;;2.20;;
18280;SDS011;9266;51.132;17.062;2023-03-23T12:04:30;3.60;;;2.23;;
18280;SDS011;9266;51.132;17.062;2023-03-23T12:07:22;5.70;;;2.10;;
18280;SDS011;9266;51.132;17.062;2023-03-23T12:10:15;3.77;;;2.40;;
18280;SDS011;9266;51.132;17.062;2023-03-23T12:12:54;3.37;;;2.37;;
18280;SDS011;9266;51.132;17.062;2023-03-23T12:15:30;2.80;;;2.17;;
18280;SDS011;9266;51.132;17.062;2023-03-23T12:18:06;3.17;;;2.10;;
18280;SDS011;9266;51.132;17.062;2023-03-23T12:20:43;2.53;;;2.10;;
18280;SDS011;9266;51.132;17.062;2023-03-23T12:23:23;4.37;;;2.50;;
18280;SDS011;9266;51.132;17.062;2023-03-23T12:26:02;4.73;;;2.57;;
18280;SDS011;9266;51.132;17.062;2023-03-23T12:28:44;3.40;;;2.17;;
18280;SDS011;9266;51.132;17.062;2023-03-23T12:31:33;3.47;;;2.30;;
18280;SDS011;9266;51.132;17.062;2023-03-23T12:34:10;3.30;;;2.10;;
18280;SDS011;9266;51.132;17.062;2023-03-23T12:36:48;6.20;;;2.60;;
18280;SDS011;9266;51.132;17.062;2023-03-23T12:42:35;7.57;;;2.80;;
18280;SDS011;9266;51.132;17.062;2023-03-23T12:45:15;4.33;;;2.40;;
18280;SDS011;9266;51.132;17.062;2023-03-23T12:47:49;3.93;;;3.20;;
18280;SDS011;9266;51.132;17.062;2023-03-23T12:50:24;3.30;;;2.50;;
18280;SDS011;9266;51.132;17.062;2023-03-23T12:52:56;3.17;;;2.83;;
18280;SDS011;9266;51.132;17.062;2023-03-23T12:55:31;3.33;;;2.90;;
18280;SDS011;9266;51.132;17.062;2023-03-23T12:58:03;3.60;;;2.50;;
18280;SDS011;9266;51.132;17.062;2023-03-23T13:00:46;4.10;;;2.40;;
18280;SDS011;9266;51.132;17.062;2023-03-23T13:03:24;4.30;;;2.53;;
18280;SDS011;9266;51.132;17.062;2023-03-23T13:05:58;6.10;;;2.43;;
18280;SDS011;9266;51.132;17.062;2023-03-23T13:08:31;8.63;;;2.50;;
18280;SDS011;9266;51.132;17.062;2023-03-23T13:11:03;4.23;;;2.40;;
18280;SDS011;9266;51.132;17.062;2023-03-23T13:13:41;5.13;;;2.53;;
18280;SDS011;9266;51.132;17.062;2023-03-23T13:16:16;5.47;;;2.40;;
18280;SDS011;9266;51.132;17.062;2023-03-23T13:18:55;3.90;;;3.20;;
18280;SDS011;9266;51.132;17.062;2023-03-23T13:21:30;3.77;;;2.90;;
18280;SDS011;9266;51.132;17.062;2023-03-23T13:23:59;6.50;;;2.60;;
18280;SDS011;9266;51.132;17.062;2023-03-23T13:26:29;3.83;;;2.83;;
18280;SDS011;9266;51.132;17.062;2023-03-23T13:28:57;5.67;;;2.83;;
18280;SDS011;9266;51.132;17.062;2023-03-23T13:31:29;4.33;;;2.50;;
18280;SDS011;9266;51.132;17.062;2023-03-23T13:33:59;6.77;;;2.93;;
18280;SDS011;9266;51.132;17.062;2023-03-23T13:36:30;3.43;;;2.50;;
18280;SDS011;9266;51.132;17.062;2023-03-23T13:39:00;3.60;;;2.77;;
18280;SDS011;9266;51.132;17.062;2023-03-23T13:41:32;4.97;;;3.47;;
18280;SDS011;9266;51.132;17.062;2023-03-23T13:44:20;7.03;;;5.47;;
18280;SDS011;9266;51.132;17.062;2023-03-23T13:47:04;5.73;;;2.90;;
18280;SDS011;9266;51.132;17.062;2023-03-23T13:49:33;6.10;;;2.57;;
18280;SDS011;9266;51.132;17.062;2023-03-23T13:52:15;5.53;;;2.90;;
18280;SDS011;9266;51.132;17.062;2023-03-23T13:54:45;5.17;;;2.60;;
18280;SDS011;9266;51.132;17.062;2023-03-23T13:57:32;6.90;;;3.10;;
18280;SDS011;9266;51.132;17.062;2023-03-23T14:00:09;4.97;;;3.20;;
18280;SDS011;9266;51.132;17.062;2023-03-23T14:03:01;4.60;;;3.07;;
18280;SDS011;9266;51.132;17.062;2023-03-23T14:05:31;4.43;;;3.13;;
18280;SDS011;9266;51.132;17.062;2023-03-23T14:08:02;6.10;;;3.20;;
18280;SDS011;9266;51.132;17.062;2023-03-23T14:10:37;4.10;;;3.00;;
18280;SDS011;9266;51.132;17.062;2023-03-23T14:13:09;5.57;;;3.00;;
18280;SDS011;9266;51.132;17.062;2023-03-23T14:15:43;5.50;;;3.40;;
18280;SDS011;9266;51.132;17.062;2023-03-23T14:18:15;4.03;;;3.10;;
18280;SDS011;9266;51.132;17.062;2023-03-23T14:20:43;5.50;;;3.40;;
18280;SDS011;9266;51.132;17.062;2023-03-23T14:23:16;4.63;;;3.00;;
18280;SDS011;9266;51.132;17.062;2023-03-23T14:25:44;5.80;;;3.20;;
18280;SDS011;9266;51.132;17.062;2023-03-23T14:28:20;4.43;;;2.63;;
18280;SDS011;9266;51.132;17.062;2023-03-23T14:30:48;3.57;;;3.00;;
18280;SDS011;9266;51.132;17.062;2023-03-23T14:33:21;4.77;;;2.87;;
18280;SDS011;9266;51.132;17.062;2023-03-23T14:35:48;4.77;;;3.23;;
18280;SDS011;9266;51.132;17.062;2023-03-23T14:38:16;3.97;;;2.70;;
18280;SDS011;9266;51.132;17.062;2023-03-23T14:40:45;5.47;;;3.47;;
18280;SDS011;9266;51.132;17.062;2023-03-23T14:43:14;5.67;;;3.93;;
18280;SDS011;9266;51.132;17.062;2023-03-23T14:45:43;5.20;;;3.20;;
18280;SDS011;9266;51.132;17.062;2023-03-23T14:48:17;6.07;;;3.30;;
18280;SDS011;9266;51.132;17.062;2023-03-23T14:50:50;6.00;;;3.27;;
18280;SDS011;9266;51.132;17.062;2023-03-23T14:53:19;5.80;;;3.27;;
18280;SDS011;9266;51.132;17.062;2023-03-23T14:55:49;4.73;;;3.90;;
18280;SDS011;9266;51.132;17.062;2023-03-23T14:58:18;3.53;;;3.10;;
18280;SDS011;9266;51.132;17.062;2023-03-23T15:00:49;5.07;;;3.10;;
18280;SDS011;9266;51.132;17.062;2023-03-23T15:03:21;4.97;;;3.30;;
18280;SDS011;9266;51.132;17.062;2023-03-23T15:05:51;5.23;;;3.00;;
18280;SDS011;9266;51.132;17.062;2023-03-23T15:08:21;11.47;;;10.40;;
18280;SDS011;9266;51.132;17.062;2023-03-23T15:10:55;7.40;;;5.00;;
18280;SDS011;9266;51.132;17.062;2023-03-23T15:13:32;3.73;;;2.67;;